sensor_id;sensor_type;location;lat;lon;timestamp;P1;durP1;ratioP1;P2;durP2;ratioP2
46941;SDS011;32676;52.630;4.896;2023-12-14T00:02:02;18.63;;;7.13;;
46941;SDS011;32676;52.630;4.896;2023-12-14T00:04:29;19.30;;;8.15;;
46941;SDS011;32676;52.630;4.896;2023-12-14T00:06:55;18.40;;;6.32;;
46941;SDS011;32676;52.630;4.896;2023-12-14T00:09:22;17.45;;;6.95;;
46941;SDS011;32676;52.630;4.896;2023-12-14T00:11:49;22.25;;;8.50;;
46941;SDS011;32676;52.630;4.896;2023-12-14T00:14:16;19.60;;;6.38;;
46941;SDS011;32676;52.630;4.896;2023-12-14T00:16:43;15.43;;;7.28;;
46941;SDS011;32676;52.630;4.896;2023-12-14T00:19:09;27.73;;;8.65;;
46941;SDS011;32676;52.630;4.896;2023-12-14T00:21:34;14.23;;;7.90;;
46941;SDS011;32676;52.630;4.896;2023-12-14T00:24:01;17.50;;;8.15;;
46941;SDS011;32676;52.630;4.896;2023-12-14T00:26:27;16.63;;;7.35;;
46941;SDS011;32676;52.630;4.896;2023-12-14T00:28:55;23.30;;;7.75;;
46941;SDS011;32676;52.630;4.896;2023-12-14T00:31:22;15.63;;;6.75;;
46941;SDS011;32676;52.630;4.896;2023-12-14T00:33:48;13.73;;;6.50;;
46941;SDS011;32676;52.630;4.896;2023-12-14T00:36:18;20.45;;;6.68;;
46941;SDS011;32676;52.630;4.896;2023-12-14T00:38:45;15.63;;;7.07;;
46941;SDS011;32676;52.630;4.896;2023-12-14T00:41:11;14.77;;;6.53;;
46941;SDS011;32676;52.630;4.896;2023-12-14T00:43:38;18.20;;;6.03;;
46941;SDS011;32676;52.630;4.896;2023-12-14T00:46:06;83.72;;;10.02;;
46941;SDS011;32676;52.630;4.896;2023-12-14T00:48:33;16.33;;;6.72;;
46941;SDS011;32676;52.630;4.896;2023-12-14T00:50:59;16.80;;;5.53;;
46941;SDS011;32676;52.630;4.896;2023-12-14T00:53:26;12.95;;;8.25;;
46941;SDS011;32676;52.630;4.896;2023-12-14T00:55:52;14.02;;;6.22;;
46941;SDS011;32676;52.630;4.896;2023-12-14T00:58:19;15.85;;;6.28;;
46941;SDS011;32676;52.630;4.896;2023-12-14T01:00:45;16.65;;;6.60;;
46941;SDS011;32676;52.630;4.896;2023-12-14T01:03:13;21.48;;;6.47;;
46941;SDS011;32676;52.630;4.896;2023-12-14T01:05:40;25.20;;;7.07;;
46941;SDS011;32676;52.630;4.896;2023-12-14T01:08:06;19.30;;;6.32;;
46941;SDS011;32676;52.630;4.896;2023-12-14T01:10:33;16.98;;;6.68;;
46941;SDS011;32676;52.630;4.896;2023-12-14T01:12:59;18.20;;;6.07;;
46941;SDS011;32676;52.630;4.896;2023-12-14T01:15:26;20.10;;;6.28;;
46941;SDS011;32676;52.630;4.896;2023-12-14T01:17:52;13.73;;;5.75;;
46941;SDS011;32676;52.630;4.896;2023-12-14T01:20:20;23.92;;;6.85;;
46941;SDS011;32676;52.630;4.896;2023-12-14T01:22:47;21.80;;;6.70;;
46941;SDS011;32676;52.630;4.896;2023-12-14T01:25:13;13.05;;;5.82;;
46941;SDS011;32676;52.630;4.896;2023-12-14T01:27:40;17.45;;;7.30;;
46941;SDS011;32676;52.630;4.896;2023-12-14T01:30:07;11.32;;;5.28;;
46941;SDS011;32676;52.630;4.896;2023-12-14T01:32:36;12.38;;;5.43;;
46941;SDS011;32676;52.630;4.896;2023-12-14T01:35:04;19.92;;;5.03;;
46941;SDS011;32676;52.630;4.896;2023-12-14T01:37:32;18.30;;;5.40;;
46941;SDS011;32676;52.630;4.896;2023-12-14T01:39:58;11.25;;;4.57;;
46941;SDS011;32676;52.630;4.896;2023-12-14T01:42:25;17.80;;;4.70;;
46941;SDS011;32676;52.630;4.896;2023-12-14T01:44:51;11.55;;;6.05;;
46941;SDS011;32676;52.630;4.896;2023-12-14T01:47:17;10.68;;;4.65;;
46941;SDS011;32676;52.630;4.896;2023-12-14T01:49:44;11.95;;;4.57;;
46941;SDS011;32676;52.630;4.896;2023-12-14T01:52:10;15.65;;;6.43;;
46941;SDS011;32676;52.630;4.896;2023-12-14T01:54:38;12.15;;;5.03;;
46941;SDS011;32676;52.630;4.896;2023-12-14T01:57:04;16.98;;;5.00;;
46941;SDS011;32676;52.630;4.896;2023-12-14T01:59:31;15.23;;;5.60;;
46941;SDS011;32676;52.630;4.896;2023-12-14T02:01:58;11.98;;;5.55;;
46941;SDS011;32676;52.630;4.896;2023-12-14T02:04:26;12.98;;;5.47;;
46941;SDS011;32676;52.630;4.896;2023-12-14T02:06:52;19.35;;;5.65;;
46941;SDS011;32676;52.630;4.896;2023-12-14T02:09:19;15.93;;;4.75;;
46941;SDS011;32676;52.630;4.896;2023-12-14T02:11:47;17.58;;;4.85;;
46941;SDS011;32676;52.630;4.896;2023-12-14T02:14:13;10.23;;;3.85;;
46941;SDS011;32676;52.630;4.896;2023-12-14T02:16:39;7.55;;;2.67;;
46941;SDS011;32676;52.630;4.896;2023-12-14T02:19:06;8.32;;;2.85;;
46941;SDS011;32676;52.630;4.896;2023-12-14T02:21:33;11.27;;;3.60;;
46941;SDS011;32676;52.630;4.896;2023-12-14T02:24:01;14.23;;;4.80;;
46941;SDS011;32676;52.630;4.896;2023-12-14T02:26:27;10.30;;;3.72;;
46941;SDS011;32676;52.630;4.896;2023-12-14T02:28:53;6.00;;;2.60;;
46941;SDS011;32676;52.630;4.896;2023-12-14T02:31:20;7.22;;;3.38;;
46941;SDS011;32676;52.630;4.896;2023-12-14T02:33:46;16.17;;;2.80;;
46941;SDS011;32676;52.630;4.896;2023-12-14T02:36:13;6.20;;;2.95;;
46941;SDS011;32676;52.630;4.896;2023-12-14T02:38:39;7.68;;;2.65;;
46941;SDS011;32676;52.630;4.896;2023-12-14T02:41:07;6.28;;;2.70;;
46941;SDS011;32676;52.630;4.896;2023-12-14T02:43:34;6.38;;;2.75;;
46941;SDS011;32676;52.630;4.896;2023-12-14T02:46:00;8.90;;;3.30;;
46941;SDS011;32676;52.630;4.896;2023-12-14T02:48:27;6.32;;;3.10;;
46941;SDS011;32676;52.630;4.896;2023-12-14T02:50:54;9.95;;;2.92;;
46941;SDS011;32676;52.630;4.896;2023-12-14T02:53:21;6.85;;;2.65;;
46941;SDS011;32676;52.630;4.896;2023-12-14T02:55:48;13.13;;;3.42;;
46941;SDS011;32676;52.630;4.896;2023-12-14T02:58:16;8.35;;;3.05;;
46941;SDS011;32676;52.630;4.896;2023-12-14T03:00:42;5.50;;;2.30;;
46941;SDS011;32676;52.630;4.896;2023-12-14T03:03:08;5.75;;;2.58;;
46941;SDS011;32676;52.630;4.896;2023-12-14T03:05:35;3.17;;;1.55;;
46941;SDS011;32676;52.630;4.896;2023-12-14T03:08:02;6.32;;;2.33;;
46941;SDS011;32676;52.630;4.896;2023-12-14T03:10:28;3.38;;;1.90;;
46941;SDS011;32676;52.630;4.896;2023-12-14T03:12:55;10.18;;;4.18;;
46941;SDS011;32676;52.630;4.896;2023-12-14T03:15:23;7.03;;;2.47;;
46941;SDS011;32676;52.630;4.896;2023-12-14T03:17:49;6.75;;;3.05;;
46941;SDS011;32676;52.630;4.896;2023-12-14T03:20:16;6.03;;;2.88;;
46941;SDS011;32676;52.630;4.896;2023-12-14T03:22:42;6.03;;;2.88;;
46941;SDS011;32676;52.630;4.896;2023-12-14T03:25:09;6.70;;;2.95;;
46941;SDS011;32676;52.630;4.896;2023-12-14T03:27:35;6.80;;;3.47;;
46941;SDS011;32676;52.630;4.896;2023-12-14T03:30:02;11.35;;;3.80;;
46941;SDS011;32676;52.630;4.896;2023-12-14T03:32:34;6.45;;;2.55;;
46941;SDS011;32676;52.630;4.896;2023-12-14T03:35:00;6.10;;;2.63;;
46941;SDS011;32676;52.630;4.896;2023-12-14T03:37:27;10.35;;;3.97;;
46941;SDS011;32676;52.630;4.896;2023-12-14T03:39:53;12.05;;;3.83;;
46941;SDS011;32676;52.630;4.896;2023-12-14T03:42:20;9.52;;;3.88;;
46941;SDS011;32676;52.630;4.896;2023-12-14T03:44:47;12.45;;;2.88;;
46941;SDS011;32676;52.630;4.896;2023-12-14T03:47:13;6.30;;;3.72;;
46941;SDS011;32676;52.630;4.896;2023-12-14T03:49:42;5.75;;;3.25;;
46941;SDS011;32676;52.630;4.896;2023-12-14T03:52:09;7.28;;;3.58;;
46941;SDS011;32676;52.630;4.896;2023-12-14T03:54:35;11.95;;;3.85;;
46941;SDS011;32676;52.630;4.896;2023-12-14T03:57:02;11.63;;;5.20;;
46941;SDS011;32676;52.630;4.896;2023-12-14T03:59:28;12.35;;;3.65;;
46941;SDS011;32676;52.630;4.896;2023-12-14T04:01:57;9.10;;;3.60;;
46941;SDS011;32676;52.630;4.896;2023-12-14T04:04:23;12.43;;;3.60;;
46941;SDS011;32676;52.630;4.896;2023-12-14T04:06:51;7.75;;;2.70;;
46941;SDS011;32676;52.630;4.896;2023-12-14T04:09:18;8.77;;;3.85;;
46941;SDS011;32676;52.630;4.896;2023-12-14T04:11:44;7.30;;;4.07;;
46941;SDS011;32676;52.630;4.896;2023-12-14T04:14:10;6.53;;;3.63;;
46941;SDS011;32676;52.630;4.896;2023-12-14T04:16:37;13.05;;;4.78;;
46941;SDS011;32676;52.630;4.896;2023-12-14T04:19:03;10.38;;;4.13;;
46941;SDS011;32676;52.630;4.896;2023-12-14T04:21:34;6.45;;;3.75;;
46941;SDS011;32676;52.630;4.896;2023-12-14T04:24:02;8.20;;;4.00;;
46941;SDS011;32676;52.630;4.896;2023-12-14T04:26:29;9.05;;;3.50;;
46941;SDS011;32676;52.630;4.896;2023-12-14T04:28:55;9.85;;;3.30;;
46941;SDS011;32676;52.630;4.896;2023-12-14T04:31:22;6.43;;;3.30;;
46941;SDS011;32676;52.630;4.896;2023-12-14T04:33:48;12.65;;;3.20;;
46941;SDS011;32676;52.630;4.896;2023-12-14T04:36:15;9.32;;;3.42;;
46941;SDS011;32676;52.630;4.896;2023-12-14T04:38:41;11.25;;;4.13;;
46941;SDS011;32676;52.630;4.896;2023-12-14T04:41:12;8.48;;;3.55;;
46941;SDS011;32676;52.630;4.896;2023-12-14T04:43:38;8.63;;;4.05;;
46941;SDS011;32676;52.630;4.896;2023-12-14T04:46:05;8.82;;;4.43;;
46941;SDS011;32676;52.630;4.896;2023-12-14T04:48:32;7.65;;;3.50;;
46941;SDS011;32676;52.630;4.896;2023-12-14T04:50:58;7.80;;;3.50;;
46941;SDS011;32676;52.630;4.896;2023-12-14T04:53:24;10.82;;;4.68;;
46941;SDS011;32676;52.630;4.896;2023-12-14T04:55:51;8.95;;;3.78;;
46941;SDS011;32676;52.630;4.896;2023-12-14T04:58:19;10.85;;;4.60;;
46941;SDS011;32676;52.630;4.896;2023-12-14T05:00:45;10.38;;;4.10;;
46941;SDS011;32676;52.630;4.896;2023-12-14T05:03:12;9.30;;;4.25;;
46941;SDS011;32676;52.630;4.896;2023-12-14T05:05:38;7.88;;;3.85;;
46941;SDS011;32676;52.630;4.896;2023-12-14T05:08:05;11.15;;;3.35;;
46941;SDS011;32676;52.630;4.896;2023-12-14T05:10:31;9.77;;;3.63;;
46941;SDS011;32676;52.630;4.896;2023-12-14T05:12:58;9.68;;;2.97;;
46941;SDS011;32676;52.630;4.896;2023-12-14T05:15:26;13.88;;;4.55;;
46941;SDS011;32676;52.630;4.896;2023-12-14T05:17:53;7.85;;;3.47;;
46941;SDS011;32676;52.630;4.896;2023-12-14T05:20:19;12.45;;;4.20;;
46941;SDS011;32676;52.630;4.896;2023-12-14T05:22:46;10.63;;;4.60;;
46941;SDS011;32676;52.630;4.896;2023-12-14T05:25:12;14.63;;;4.50;;
46941;SDS011;32676;52.630;4.896;2023-12-14T05:27:39;11.20;;;4.55;;
46941;SDS011;32676;52.630;4.896;2023-12-14T05:30:06;16.63;;;5.35;;
46941;SDS011;32676;52.630;4.896;2023-12-14T05:32:35;13.25;;;4.70;;
46941;SDS011;32676;52.630;4.896;2023-12-14T05:35:01;11.55;;;4.45;;
46941;SDS011;32676;52.630;4.896;2023-12-14T05:37:28;8.80;;;3.88;;
46941;SDS011;32676;52.630;4.896;2023-12-14T05:39:54;8.50;;;3.30;;
46941;SDS011;32676;52.630;4.896;2023-12-14T05:42:21;7.47;;;3.20;;
46941;SDS011;32676;52.630;4.896;2023-12-14T05:44:49;7.45;;;3.72;;
46941;SDS011;32676;52.630;4.896;2023-12-14T05:47:15;8.82;;;4.13;;
46941;SDS011;32676;52.630;4.896;2023-12-14T05:49:43;8.02;;;3.50;;
46941;SDS011;32676;52.630;4.896;2023-12-14T05:52:10;16.95;;;5.90;;
46941;SDS011;32676;52.630;4.896;2023-12-14T05:54:37;11.43;;;4.13;;
46941;SDS011;32676;52.630;4.896;2023-12-14T05:57:04;18.45;;;5.10;;
46941;SDS011;32676;52.630;4.896;2023-12-14T05:59:31;10.65;;;4.70;;
46941;SDS011;32676;52.630;4.896;2023-12-14T06:01:58;9.80;;;5.20;;
46941;SDS011;32676;52.630;4.896;2023-12-14T06:04:25;6.82;;;4.38;;
46941;SDS011;32676;52.630;4.896;2023-12-14T06:06:54;9.05;;;3.95;;
46941;SDS011;32676;52.630;4.896;2023-12-14T06:09:20;10.70;;;4.72;;
46941;SDS011;32676;52.630;4.896;2023-12-14T06:11:54;9.48;;;3.97;;
46941;SDS011;32676;52.630;4.896;2023-12-14T06:14:21;11.45;;;4.70;;
46941;SDS011;32676;52.630;4.896;2023-12-14T06:16:47;15.18;;;4.05;;
46941;SDS011;32676;52.630;4.896;2023-12-14T06:19:14;9.32;;;3.50;;
46941;SDS011;32676;52.630;4.896;2023-12-14T06:21:41;11.40;;;4.78;;
46941;SDS011;32676;52.630;4.896;2023-12-14T06:24:09;14.05;;;4.95;;
46941;SDS011;32676;52.630;4.896;2023-12-14T06:26:40;10.40;;;4.95;;
46941;SDS011;32676;52.630;4.896;2023-12-14T06:29:06;12.98;;;4.38;;
46941;SDS011;32676;52.630;4.896;2023-12-14T06:31:33;11.18;;;4.13;;
46941;SDS011;32676;52.630;4.896;2023-12-14T06:33:59;14.07;;;6.25;;
46941;SDS011;32676;52.630;4.896;2023-12-14T06:36:28;10.15;;;4.03;;
46941;SDS011;32676;52.630;4.896;2023-12-14T06:38:55;10.75;;;4.35;;
46941;SDS011;32676;52.630;4.896;2023-12-14T06:41:23;9.32;;;6.00;;
46941;SDS011;32676;52.630;4.896;2023-12-14T06:43:50;9.85;;;4.45;;
46941;SDS011;32676;52.630;4.896;2023-12-14T06:46:18;9.70;;;5.07;;
46941;SDS011;32676;52.630;4.896;2023-12-14T06:48:44;13.45;;;5.00;;
46941;SDS011;32676;52.630;4.896;2023-12-14T06:51:11;23.15;;;5.45;;
46941;SDS011;32676;52.630;4.896;2023-12-14T06:53:39;9.73;;;4.65;;
46941;SDS011;32676;52.630;4.896;2023-12-14T06:56:06;13.00;;;5.32;;
46941;SDS011;32676;52.630;4.896;2023-12-14T06:58:36;12.77;;;5.68;;
46941;SDS011;32676;52.630;4.896;2023-12-14T07:01:03;9.48;;;4.63;;
46941;SDS011;32676;52.630;4.896;2023-12-14T07:03:30;11.35;;;4.82;;
46941;SDS011;32676;52.630;4.896;2023-12-14T07:05:56;13.25;;;6.15;;
46941;SDS011;32676;52.630;4.896;2023-12-14T07:08:23;9.77;;;5.53;;
46941;SDS011;32676;52.630;4.896;2023-12-14T07:10:50;13.20;;;5.55;;
46941;SDS011;32676;52.630;4.896;2023-12-14T07:13:16;14.05;;;5.35;;
46941;SDS011;32676;52.630;4.896;2023-12-14T07:15:44;11.23;;;5.15;;
46941;SDS011;32676;52.630;4.896;2023-12-14T07:18:11;12.55;;;4.53;;
46941;SDS011;32676;52.630;4.896;2023-12-14T07:20:38;11.07;;;5.13;;
46941;SDS011;32676;52.630;4.896;2023-12-14T07:23:04;12.15;;;6.10;;
46941;SDS011;32676;52.630;4.896;2023-12-14T07:25:31;8.35;;;5.35;;
46941;SDS011;32676;52.630;4.896;2023-12-14T07:27:57;12.95;;;5.95;;
46941;SDS011;32676;52.630;4.896;2023-12-14T07:30:24;10.57;;;5.28;;
46941;SDS011;32676;52.630;4.896;2023-12-14T07:32:52;11.40;;;4.88;;
46941;SDS011;32676;52.630;4.896;2023-12-14T07:35:18;18.52;;;6.28;;
46941;SDS011;32676;52.630;4.896;2023-12-14T07:37:44;11.48;;;4.43;;
46941;SDS011;32676;52.630;4.896;2023-12-14T07:40:11;18.80;;;5.43;;
46941;SDS011;32676;52.630;4.896;2023-12-14T07:42:38;10.15;;;4.65;;
46941;SDS011;32676;52.630;4.896;2023-12-14T07:45:04;12.82;;;4.50;;
46941;SDS011;32676;52.630;4.896;2023-12-14T07:47:33;15.30;;;6.10;;
46941;SDS011;32676;52.630;4.896;2023-12-14T07:50:01;9.77;;;4.45;;
46941;SDS011;32676;52.630;4.896;2023-12-14T07:52:28;10.60;;;5.18;;
46941;SDS011;32676;52.630;4.896;2023-12-14T07:54:55;11.43;;;6.10;;
46941;SDS011;32676;52.630;4.896;2023-12-14T07:57:21;13.13;;;6.50;;
46941;SDS011;32676;52.630;4.896;2023-12-14T07:59:48;18.08;;;5.38;;
46941;SDS011;32676;52.630;4.896;2023-12-14T08:02:15;11.85;;;4.13;;
46941;SDS011;32676;52.630;4.896;2023-12-14T08:04:41;11.80;;;5.75;;
46941;SDS011;32676;52.630;4.896;2023-12-14T08:07:09;10.77;;;5.13;;
46941;SDS011;32676;52.630;4.896;2023-12-14T08:09:36;14.07;;;6.25;;
46941;SDS011;32676;52.630;4.896;2023-12-14T08:12:02;9.75;;;5.32;;
46941;SDS011;32676;52.630;4.896;2023-12-14T08:14:29;15.05;;;5.35;;
46941;SDS011;32676;52.630;4.896;2023-12-14T08:16:58;12.48;;;5.93;;
46941;SDS011;32676;52.630;4.896;2023-12-14T08:19:25;16.88;;;6.63;;
46941;SDS011;32676;52.630;4.896;2023-12-14T08:21:51;16.25;;;6.65;;
46941;SDS011;32676;52.630;4.896;2023-12-14T08:24:19;17.20;;;5.90;;
46941;SDS011;32676;52.630;4.896;2023-12-14T08:26:46;12.93;;;5.43;;
46941;SDS011;32676;52.630;4.896;2023-12-14T08:29:12;9.40;;;4.40;;
46941;SDS011;32676;52.630;4.896;2023-12-14T08:31:39;9.52;;;4.10;;
46941;SDS011;32676;52.630;4.896;2023-12-14T08:34:06;10.45;;;4.68;;
46941;SDS011;32676;52.630;4.896;2023-12-14T08:36:32;9.02;;;4.50;;
46941;SDS011;32676;52.630;4.896;2023-12-14T08:38:58;13.25;;;5.97;;
46941;SDS011;32676;52.630;4.896;2023-12-14T08:41:26;16.85;;;6.43;;
46941;SDS011;32676;52.630;4.896;2023-12-14T08:43:52;9.13;;;4.63;;
46941;SDS011;32676;52.630;4.896;2023-12-14T08:46:20;14.90;;;5.03;;
46941;SDS011;32676;52.630;4.896;2023-12-14T08:48:47;13.10;;;5.53;;
46941;SDS011;32676;52.630;4.896;2023-12-14T08:51:14;9.10;;;4.70;;
46941;SDS011;32676;52.630;4.896;2023-12-14T08:53:42;12.57;;;6.05;;
46941;SDS011;32676;52.630;4.896;2023-12-14T08:56:09;14.82;;;5.25;;
46941;SDS011;32676;52.630;4.896;2023-12-14T08:58:37;12.98;;;5.63;;
46941;SDS011;32676;52.630;4.896;2023-12-14T09:01:03;10.45;;;4.95;;
46941;SDS011;32676;52.630;4.896;2023-12-14T09:03:30;16.05;;;6.47;;
46941;SDS011;32676;52.630;4.896;2023-12-14T09:05:56;9.77;;;5.60;;
46941;SDS011;32676;52.630;4.896;2023-12-14T09:08:23;15.05;;;4.82;;
46941;SDS011;32676;52.630;4.896;2023-12-14T09:10:50;9.45;;;4.68;;
46941;SDS011;32676;52.630;4.896;2023-12-14T09:13:16;9.63;;;4.60;;
46941;SDS011;32676;52.630;4.896;2023-12-14T09:15:44;17.67;;;5.25;;
46941;SDS011;32676;52.630;4.896;2023-12-14T09:18:10;9.68;;;4.20;;
46941;SDS011;32676;52.630;4.896;2023-12-14T09:20:37;10.40;;;4.93;;
46941;SDS011;32676;52.630;4.896;2023-12-14T09:23:05;11.35;;;4.35;;
46941;SDS011;32676;52.630;4.896;2023-12-14T09:25:31;12.35;;;4.55;;
46941;SDS011;32676;52.630;4.896;2023-12-14T09:27:58;11.27;;;4.90;;
46941;SDS011;32676;52.630;4.896;2023-12-14T09:30:24;16.10;;;6.70;;
46941;SDS011;32676;52.630;4.896;2023-12-14T09:32:52;18.30;;;5.72;;
46941;SDS011;32676;52.630;4.896;2023-12-14T09:35:19;11.50;;;4.75;;
46941;SDS011;32676;52.630;4.896;2023-12-14T09:37:45;10.98;;;5.00;;
46941;SDS011;32676;52.630;4.896;2023-12-14T09:40:12;10.02;;;4.30;;
46941;SDS011;32676;52.630;4.896;2023-12-14T09:42:39;10.15;;;4.90;;
46941;SDS011;32676;52.630;4.896;2023-12-14T09:45:06;10.35;;;4.82;;
46941;SDS011;32676;52.630;4.896;2023-12-14T09:47:34;12.07;;;5.07;;
46941;SDS011;32676;52.630;4.896;2023-12-14T09:50:02;16.02;;;6.40;;
46941;SDS011;32676;52.630;4.896;2023-12-14T09:52:30;10.70;;;5.20;;
46941;SDS011;32676;52.630;4.896;2023-12-14T09:54:57;10.40;;;4.90;;
46941;SDS011;32676;52.630;4.896;2023-12-14T09:57:23;18.98;;;5.72;;
46941;SDS011;32676;52.630;4.896;2023-12-14T09:59:51;13.15;;;4.55;;
46941;SDS011;32676;52.630;4.896;2023-12-14T10:02:18;12.63;;;5.68;;
46941;SDS011;32676;52.630;4.896;2023-12-14T10:04:45;11.23;;;4.45;;
46941;SDS011;32676;52.630;4.896;2023-12-14T10:07:13;10.43;;;5.13;;
46941;SDS011;32676;52.630;4.896;2023-12-14T10:09:41;10.30;;;5.82;;
46941;SDS011;32676;52.630;4.896;2023-12-14T10:12:08;12.45;;;4.40;;
46941;SDS011;32676;52.630;4.896;2023-12-14T10:14:36;12.25;;;4.70;;
46941;SDS011;32676;52.630;4.896;2023-12-14T10:17:13;11.70;;;5.45;;
46941;SDS011;32676;52.630;4.896;2023-12-14T10:19:44;9.30;;;4.53;;
46941;SDS011;32676;52.630;4.896;2023-12-14T10:22:11;14.10;;;4.88;;
46941;SDS011;32676;52.630;4.896;2023-12-14T10:24:42;11.57;;;4.68;;
46941;SDS011;32676;52.630;4.896;2023-12-14T10:27:10;10.55;;;4.30;;
46941;SDS011;32676;52.630;4.896;2023-12-14T10:29:37;15.45;;;7.30;;
46941;SDS011;32676;52.630;4.896;2023-12-14T10:32:04;16.02;;;6.15;;
46941;SDS011;32676;52.630;4.896;2023-12-14T10:34:32;9.65;;;5.28;;
46941;SDS011;32676;52.630;4.896;2023-12-14T10:36:59;15.40;;;6.18;;
46941;SDS011;32676;52.630;4.896;2023-12-14T10:39:28;10.60;;;6.03;;
46941;SDS011;32676;52.630;4.896;2023-12-14T10:41:55;9.63;;;4.90;;
46941;SDS011;32676;52.630;4.896;2023-12-14T10:44:25;14.90;;;6.55;;
46941;SDS011;32676;52.630;4.896;2023-12-14T10:46:53;13.43;;;4.30;;
46941;SDS011;32676;52.630;4.896;2023-12-14T10:49:22;8.77;;;4.18;;
46941;SDS011;32676;52.630;4.896;2023-12-14T10:51:49;9.13;;;3.35;;
46941;SDS011;32676;52.630;4.896;2023-12-14T10:54:17;10.38;;;4.80;;
46941;SDS011;32676;52.630;4.896;2023-12-14T10:56:46;7.60;;;4.82;;
46941;SDS011;32676;52.630;4.896;2023-12-14T10:59:14;15.98;;;5.38;;
46941;SDS011;32676;52.630;4.896;2023-12-14T11:01:41;10.05;;;4.25;;
46941;SDS011;32676;52.630;4.896;2023-12-14T11:04:07;9.40;;;3.72;;
46941;SDS011;32676;52.630;4.896;2023-12-14T11:06:38;14.27;;;4.30;;
46941;SDS011;32676;52.630;4.896;2023-12-14T11:09:08;9.80;;;4.43;;
46941;SDS011;32676;52.630;4.896;2023-12-14T11:11:39;10.05;;;5.15;;
46941;SDS011;32676;52.630;4.896;2023-12-14T11:14:10;8.65;;;4.25;;
46941;SDS011;32676;52.630;4.896;2023-12-14T11:16:38;7.50;;;4.32;;
46941;SDS011;32676;52.630;4.896;2023-12-14T11:19:24;11.10;;;5.32;;
46941;SDS011;32676;52.630;4.896;2023-12-14T11:21:59;24.52;;;6.28;;
46941;SDS011;32676;52.630;4.896;2023-12-14T11:24:37;8.43;;;4.40;;
46941;SDS011;32676;52.630;4.896;2023-12-14T11:27:07;8.80;;;4.50;;
46941;SDS011;32676;52.630;4.896;2023-12-14T11:29:36;11.20;;;3.60;;
46941;SDS011;32676;52.630;4.896;2023-12-14T11:32:03;11.20;;;4.25;;
46941;SDS011;32676;52.630;4.896;2023-12-14T11:34:32;10.15;;;3.85;;
46941;SDS011;32676;52.630;4.896;2023-12-14T11:36:58;9.52;;;5.05;;
46941;SDS011;32676;52.630;4.896;2023-12-14T11:39:24;13.98;;;5.47;;
46941;SDS011;32676;52.630;4.896;2023-12-14T11:41:59;14.40;;;4.65;;
46941;SDS011;32676;52.630;4.896;2023-12-14T11:44:26;10.30;;;5.00;;
46941;SDS011;32676;52.630;4.896;2023-12-14T11:46:54;11.70;;;5.00;;
46941;SDS011;32676;52.630;4.896;2023-12-14T11:49:23;14.27;;;5.15;;
46941;SDS011;32676;52.630;4.896;2023-12-14T11:51:50;9.70;;;4.93;;
46941;SDS011;32676;52.630;4.896;2023-12-14T11:54:17;14.38;;;6.30;;
46941;SDS011;32676;52.630;4.896;2023-12-14T11:56:45;13.27;;;6.97;;
46941;SDS011;32676;52.630;4.896;2023-12-14T11:59:12;12.30;;;5.50;;
46941;SDS011;32676;52.630;4.896;2023-12-14T12:01:40;11.18;;;4.95;;
46941;SDS011;32676;52.630;4.896;2023-12-14T12:04:21;11.70;;;5.63;;
46941;SDS011;32676;52.630;4.896;2023-12-14T12:06:48;10.55;;;5.43;;
46941;SDS011;32676;52.630;4.896;2023-12-14T12:12:00;10.73;;;4.65;;
46941;SDS011;32676;52.630;4.896;2023-12-14T12:14:27;9.35;;;4.18;;
46941;SDS011;32676;52.630;4.896;2023-12-14T12:16:55;8.85;;;5.18;;
46941;SDS011;32676;52.630;4.896;2023-12-14T12:19:21;17.40;;;5.45;;
46941;SDS011;32676;52.630;4.896;2023-12-14T12:21:47;9.45;;;4.78;;
46941;SDS011;32676;52.630;4.896;2023-12-14T12:24:14;22.55;;;5.72;;
46941;SDS011;32676;52.630;4.896;2023-12-14T12:26:40;13.25;;;6.03;;
46941;SDS011;32676;52.630;4.896;2023-12-14T12:29:07;10.40;;;5.07;;
46941;SDS011;32676;52.630;4.896;2023-12-14T12:31:33;8.80;;;4.57;;
46941;SDS011;32676;52.630;4.896;2023-12-14T12:34:01;9.32;;;3.90;;
46941;SDS011;32676;52.630;4.896;2023-12-14T12:36:28;10.38;;;6.25;;
46941;SDS011;32676;52.630;4.896;2023-12-14T12:38:54;11.65;;;5.05;;
46941;SDS011;32676;52.630;4.896;2023-12-14T12:41:21;9.95;;;4.90;;
46941;SDS011;32676;52.630;4.896;2023-12-14T12:43:47;11.45;;;5.38;;
46941;SDS011;32676;52.630;4.896;2023-12-14T12:46:13;10.77;;;4.57;;
46941;SDS011;32676;52.630;4.896;2023-12-14T12:48:40;11.13;;;4.50;;
46941;SDS011;32676;52.630;4.896;2023-12-14T12:51:08;9.30;;;5.03;;
46941;SDS011;32676;52.630;4.896;2023-12-14T12:53:34;11.63;;;5.32;;
46941;SDS011;32676;52.630;4.896;2023-12-14T12:56:01;10.43;;;5.00;;
46941;SDS011;32676;52.630;4.896;2023-12-14T12:58:27;9.98;;;5.40;;
46941;SDS011;32676;52.630;4.896;2023-12-14T13:00:54;17.88;;;6.15;;
46941;SDS011;32676;52.630;4.896;2023-12-14T13:03:22;10.07;;;5.57;;
46941;SDS011;32676;52.630;4.896;2023-12-14T13:05:48;10.70;;;5.65;;
46941;SDS011;32676;52.630;4.896;2023-12-14T13:08:16;13.70;;;5.30;;
46941;SDS011;32676;52.630;4.896;2023-12-14T13:10:43;11.15;;;5.07;;
46941;SDS011;32676;52.630;4.896;2023-12-14T13:13:09;14.70;;;5.10;;
46941;SDS011;32676;52.630;4.896;2023-12-14T13:15:37;12.52;;;6.07;;
46941;SDS011;32676;52.630;4.896;2023-12-14T13:18:04;10.77;;;5.28;;
46941;SDS011;32676;52.630;4.896;2023-12-14T13:20:30;13.02;;;5.60;;
46941;SDS011;32676;52.630;4.896;2023-12-14T13:22:57;11.98;;;5.40;;
46941;SDS011;32676;52.630;4.896;2023-12-14T13:25:25;10.55;;;5.85;;
46941;SDS011;32676;52.630;4.896;2023-12-14T13:27:52;13.27;;;5.90;;
46941;SDS011;32676;52.630;4.896;2023-12-14T13:30:18;16.15;;;6.32;;
46941;SDS011;32676;52.630;4.896;2023-12-14T13:32:47;10.90;;;6.35;;
46941;SDS011;32676;52.630;4.896;2023-12-14T13:35:14;12.38;;;5.50;;
46941;SDS011;32676;52.630;4.896;2023-12-14T13:37:40;13.10;;;5.30;;
46941;SDS011;32676;52.630;4.896;2023-12-14T13:40:07;8.20;;;4.97;;
46941;SDS011;32676;52.630;4.896;2023-12-14T13:42:36;10.45;;;4.55;;
46941;SDS011;32676;52.630;4.896;2023-12-14T13:45:03;11.45;;;5.72;;
46941;SDS011;32676;52.630;4.896;2023-12-14T13:47:29;8.43;;;4.50;;
46941;SDS011;32676;52.630;4.896;2023-12-14T13:49:56;13.02;;;4.93;;
46941;SDS011;32676;52.630;4.896;2023-12-14T13:52:22;13.20;;;4.53;;
46941;SDS011;32676;52.630;4.896;2023-12-14T13:54:49;10.88;;;4.78;;
46941;SDS011;32676;52.630;4.896;2023-12-14T13:57:16;9.07;;;4.20;;
46941;SDS011;32676;52.630;4.896;2023-12-14T13:59:44;9.15;;;4.70;;
46941;SDS011;32676;52.630;4.896;2023-12-14T14:02:11;13.77;;;5.63;;
46941;SDS011;32676;52.630;4.896;2023-12-14T14:04:38;10.82;;;4.28;;
46941;SDS011;32676;52.630;4.896;2023-12-14T14:07:04;10.13;;;4.55;;
46941;SDS011;32676;52.630;4.896;2023-12-14T14:09:31;11.13;;;3.92;;
46941;SDS011;32676;52.630;4.896;2023-12-14T14:11:58;8.18;;;4.25;;
46941;SDS011;32676;52.630;4.896;2023-12-14T14:14:25;12.10;;;4.57;;
46941;SDS011;32676;52.630;4.896;2023-12-14T14:16:53;12.05;;;4.78;;
46941;SDS011;32676;52.630;4.896;2023-12-14T14:19:19;14.23;;;4.38;;
46941;SDS011;32676;52.630;4.896;2023-12-14T14:21:45;8.30;;;3.80;;
46941;SDS011;32676;52.630;4.896;2023-12-14T14:24:13;11.90;;;4.25;;
46941;SDS011;32676;52.630;4.896;2023-12-14T14:26:39;16.10;;;4.82;;
46941;SDS011;32676;52.630;4.896;2023-12-14T14:29:06;8.48;;;4.20;;
46941;SDS011;32676;52.630;4.896;2023-12-14T14:31:36;10.20;;;4.28;;
46941;SDS011;32676;52.630;4.896;2023-12-14T14:34:03;20.77;;;8.27;;
46941;SDS011;32676;52.630;4.896;2023-12-14T14:36:30;25.90;;;7.28;;
46941;SDS011;32676;52.630;4.896;2023-12-14T14:38:57;14.10;;;6.40;;
46941;SDS011;32676;52.630;4.896;2023-12-14T14:41:23;21.15;;;7.03;;